sensor_id;sensor_type;location;lat;lon;timestamp;pressure;altitude;pressure_sealevel;temperature;humidity
31519;BME280;18129;45.082;13.644;2023-03-19T00:01:29;101514.85;;;10.47;44.40
31519;BME280;18129;45.082;13.644;2023-03-19T00:03:56;101513.68;;;9.79;44.51
31519;BME280;18129;45.082;13.644;2023-03-19T00:06:23;101508.18;;;10.00;44.72
31519;BME280;18129;45.082;13.644;2023-03-19T00:08:50;101511.85;;;10.41;44.87
31519;BME280;18129;45.082;13.644;2023-03-19T00:11:17;101516.82;;;9.81;45.27
31519;BME280;18129;45.082;13.644;2023-03-19T00:13:45;101516.34;;;9.97;44.41
31519;BME280;18129;45.082;13.644;2023-03-19T00:16:12;101521.86;;;9.35;44.94
31519;BME280;18129;45.082;13.644;2023-03-19T00:18:39;101523.44;;;8.55;45.94
31519;BME280;18129;45.082;13.644;2023-03-19T00:21:06;101515.46;;;9.87;44.92
31519;BME280;18129;45.082;13.644;2023-03-19T00:23:34;101513.68;;;9.55;44.97
31519;BME280;18129;45.082;13.644;2023-03-19T00:26:01;101509.53;;;10.03;44.44
31519;BME280;18129;45.082;13.644;2023-03-19T00:28:29;101508.63;;;10.50;43.57
31519;BME280;18129;45.082;13.644;2023-03-19T00:30:56;101509.66;;;10.20;43.87
31519;BME280;18129;45.082;13.644;2023-03-19T00:33:23;101512.95;;;9.33;44.90
31519;BME280;18129;45.082;13.644;2023-03-19T00:35:51;101513.44;;;9.54;44.59
31519;BME280;18129;45.082;13.644;2023-03-19T00:38:18;101507.10;;;10.40;44.44
31519;BME280;18129;45.082;13.644;2023-03-19T00:40:45;101507.14;;;10.11;44.94
31519;BME280;18129;45.082;13.644;2023-03-19T00:43:12;101504.57;;;9.53;45.42
31519;BME280;18129;45.082;13.644;2023-03-19T00:45:40;101503.57;;;9.95;45.45
31519;BME280;18129;45.082;13.644;2023-03-19T00:48:07;101504.86;;;9.96;45.44
31519;BME280;18129;45.082;13.644;2023-03-19T00:50:34;101503.81;;;9.82;45.31
31519;BME280;18129;45.082;13.644;2023-03-19T00:53:01;101501.29;;;9.32;45.83
31519;BME280;18129;45.082;13.644;2023-03-19T00:55:28;101497.91;;;9.08;46.57
31519;BME280;18129;45.082;13.644;2023-03-19T00:57:55;101494.92;;;9.38;46.47
31519;BME280;18129;45.082;13.644;2023-03-19T01:00:23;101492.11;;;9.12;46.77
31519;BME280;18129;45.082;13.644;2023-03-19T01:02:50;101491.04;;;9.04;46.84
31519;BME280;18129;45.082;13.644;2023-03-19T01:05:18;101489.39;;;9.75;46.30
31519;BME280;18129;45.082;13.644;2023-03-19T01:07:46;101487.45;;;9.56;46.63
31519;BME280;18129;45.082;13.644;2023-03-19T01:10:16;101486.84;;;9.23;46.88
31519;BME280;18129;45.082;13.644;2023-03-19T01:12:43;101488.78;;;9.43;46.48
31519;BME280;18129;45.082;13.644;2023-03-19T01:15:11;101479.58;;;9.20;46.53
31519;BME280;18129;45.082;13.644;2023-03-19T01:17:39;101481.87;;;9.18;46.97
31519;BME280;18129;45.082;13.644;2023-03-19T01:20:08;101480.43;;;9.67;46.45
31519;BME280;18129;45.082;13.644;2023-03-19T01:22:36;101483.26;;;9.34;46.84
31519;BME280;18129;45.082;13.644;2023-03-19T01:25:04;101491.32;;;9.29;47.16
31519;BME280;18129;45.082;13.644;2023-03-19T01:27:31;101488.95;;;8.70;47.43
31519;BME280;18129;45.082;13.644;2023-03-19T01:29:58;101476.85;;;9.14;47.30
31519;BME280;18129;45.082;13.644;2023-03-19T01:32:26;101470.72;;;9.64;46.24
31519;BME280;18129;45.082;13.644;2023-03-19T01:34:54;101486.77;;;7.52;49.23
31519;BME280;18129;45.082;13.644;2023-03-19T01:37:21;101483.34;;;6.40;51.96
31519;BME280;18129;45.082;13.644;2023-03-19T01:39:49;101478.25;;;6.76;51.39
31519;BME280;18129;45.082;13.644;2023-03-19T01:42:16;101475.41;;;6.74;51.11
31519;BME280;18129;45.082;13.644;2023-03-19T01:44:44;101475.55;;;6.93;50.97
31519;BME280;18129;45.082;13.644;2023-03-19T01:47:17;101471.56;;;7.88;49.50
31519;BME280;18129;45.082;13.644;2023-03-19T01:49:46;101468.35;;;7.93;49.31
31519;BME280;18129;45.082;13.644;2023-03-19T01:52:19;101458.37;;;9.43;47.05
31519;BME280;18129;45.082;13.644;2023-03-19T01:54:46;101461.01;;;9.68;46.38
31519;BME280;18129;45.082;13.644;2023-03-19T01:57:15;101465.05;;;9.69;46.21
31519;BME280;18129;45.082;13.644;2023-03-19T01:59:45;101476.30;;;6.46;50.97
31519;BME280;18129;45.082;13.644;2023-03-19T02:02:17;101475.90;;;6.81;51.01
31519;BME280;18129;45.082;13.644;2023-03-19T02:04:50;101474.72;;;7.54;50.12
31519;BME280;18129;45.082;13.644;2023-03-19T02:07:19;101471.03;;;8.68;48.06
31519;BME280;18129;45.082;13.644;2023-03-19T02:09:47;101467.84;;;9.32;46.90
31519;BME280;18129;45.082;13.644;2023-03-19T02:12:15;101466.89;;;9.81;46.69
31519;BME280;18129;45.082;13.644;2023-03-19T02:14:43;101468.09;;;9.45;46.50
31519;BME280;18129;45.082;13.644;2023-03-19T02:17:10;101471.63;;;8.90;46.91
31519;BME280;18129;45.082;13.644;2023-03-19T02:19:42;101475.13;;;8.85;47.57
31519;BME280;18129;45.082;13.644;2023-03-19T02:22:11;101471.23;;;9.05;47.42
31519;BME280;18129;45.082;13.644;2023-03-19T02:24:46;101470.89;;;8.86;47.72
31519;BME280;18129;45.082;13.644;2023-03-19T02:27:16;101474.44;;;6.26;51.31
31519;BME280;18129;45.082;13.644;2023-03-19T02:29:43;101471.72;;;6.47;51.79
31519;BME280;18129;45.082;13.644;2023-03-19T02:32:10;101467.29;;;6.22;52.84
31519;BME280;18129;45.082;13.644;2023-03-19T02:34:40;101463.08;;;7.00;51.71
31519;BME280;18129;45.082;13.644;2023-03-19T02:37:13;101466.57;;;6.45;52.36
31519;BME280;18129;45.082;13.644;2023-03-19T02:39:48;101475.10;;;6.41;52.45
31519;BME280;18129;45.082;13.644;2023-03-19T02:42:18;101480.24;;;6.08;53.32
31519;BME280;18129;45.082;13.644;2023-03-19T02:44:46;101479.44;;;5.61;54.49
31519;BME280;18129;45.082;13.644;2023-03-19T02:47:13;101477.25;;;5.93;56.07
31519;BME280;18129;45.082;13.644;2023-03-19T02:49:40;101483.80;;;4.65;59.42
31519;BME280;18129;45.082;13.644;2023-03-19T02:52:08;101484.29;;;4.23;61.36
31519;BME280;18129;45.082;13.644;2023-03-19T02:54:36;101491.87;;;4.15;65.27
31519;BME280;18129;45.082;13.644;2023-03-19T02:57:04;101496.41;;;4.26;68.93
31519;BME280;18129;45.082;13.644;2023-03-19T02:59:31;101498.51;;;3.60;70.96
31519;BME280;18129;45.082;13.644;2023-03-19T03:01:58;101499.86;;;3.86;71.54
31519;BME280;18129;45.082;13.644;2023-03-19T03:04:26;101503.04;;;3.91;71.65
31519;BME280;18129;45.082;13.644;2023-03-19T03:06:53;101502.41;;;4.14;68.44
31519;BME280;18129;45.082;13.644;2023-03-19T03:09:20;101501.29;;;3.98;69.11
31519;BME280;18129;45.082;13.644;2023-03-19T03:11:46;101503.59;;;3.85;70.57
31519;BME280;18129;45.082;13.644;2023-03-19T03:14:13;101507.10;;;3.52;73.06
31519;BME280;18129;45.082;13.644;2023-03-19T03:16:40;101503.95;;;3.28;78.41
31519;BME280;18129;45.082;13.644;2023-03-19T03:19:07;101499.80;;;3.36;81.01
31519;BME280;18129;45.082;13.644;2023-03-19T03:21:34;101505.07;;;3.84;80.77
31519;BME280;18129;45.082;13.644;2023-03-19T03:24:01;101504.90;;;3.74;78.99
31519;BME280;18129;45.082;13.644;2023-03-19T03:26:29;101503.88;;;4.14;77.08
31519;BME280;18129;45.082;13.644;2023-03-19T03:28:55;101505.95;;;4.04;76.62
31519;BME280;18129;45.082;13.644;2023-03-19T03:31:22;101506.54;;;4.01;76.26
31519;BME280;18129;45.082;13.644;2023-03-19T03:33:50;101502.45;;;5.20;70.80
31519;BME280;18129;45.082;13.644;2023-03-19T03:36:17;101497.17;;;7.06;62.80
31519;BME280;18129;45.082;13.644;2023-03-19T03:38:44;101498.10;;;7.33;59.65
31519;BME280;18129;45.082;13.644;2023-03-19T03:41:11;101495.18;;;7.24;57.75
31519;BME280;18129;45.082;13.644;2023-03-19T03:43:38;101495.03;;;7.64;56.24
31519;BME280;18129;45.082;13.644;2023-03-19T03:46:06;101498.60;;;7.46;55.85
31519;BME280;18129;45.082;13.644;2023-03-19T03:48:34;101499.12;;;8.42;54.12
31519;BME280;18129;45.082;13.644;2023-03-19T03:51:01;101499.07;;;8.60;52.78
31519;BME280;18129;45.082;13.644;2023-03-19T03:53:29;101509.05;;;7.17;55.13
31519;BME280;18129;45.082;13.644;2023-03-19T03:55:56;101512.37;;;5.61;58.86
31519;BME280;18129;45.082;13.644;2023-03-19T03:58:22;101521.62;;;5.00;61.68
31519;BME280;18129;45.082;13.644;2023-03-19T04:00:49;101523.46;;;4.95;62.43
31519;BME280;18129;45.082;13.644;2023-03-19T04:03:16;101524.24;;;4.91;62.88
31519;BME280;18129;45.082;13.644;2023-03-19T04:05:44;101523.38;;;4.52;63.67
31519;BME280;18129;45.082;13.644;2023-03-19T04:08:12;101527.79;;;4.44;65.50
31519;BME280;18129;45.082;13.644;2023-03-19T04:10:40;101526.28;;;4.10;66.27
31519;BME280;18129;45.082;13.644;2023-03-19T04:13:07;101523.21;;;5.38;62.33
31519;BME280;18129;45.082;13.644;2023-03-19T04:15:35;101530.28;;;5.78;59.54
31519;BME280;18129;45.082;13.644;2023-03-19T04:18:02;101528.21;;;6.06;58.11
31519;BME280;18129;45.082;13.644;2023-03-19T04:20:30;101524.52;;;7.38;55.34
31519;BME280;18129;45.082;13.644;2023-03-19T04:22:57;101527.32;;;7.55;54.77
31519;BME280;18129;45.082;13.644;2023-03-19T04:25:24;101533.42;;;7.48;53.51
31519;BME280;18129;45.082;13.644;2023-03-19T04:27:51;101533.04;;;6.77;53.76
31519;BME280;18129;45.082;13.644;2023-03-19T04:30:18;101536.04;;;6.87;52.79
31519;BME280;18129;45.082;13.644;2023-03-19T04:32:45;101545.42;;;6.82;52.80
31519;BME280;18129;45.082;13.644;2023-03-19T04:35:12;101549.03;;;8.74;51.22
31519;BME280;18129;45.082;13.644;2023-03-19T04:37:39;101548.70;;;9.05;49.18
31519;BME280;18129;45.082;13.644;2023-03-19T04:40:08;101550.45;;;6.96;51.58
31519;BME280;18129;45.082;13.644;2023-03-19T04:42:36;101540.74;;;8.35;51.17
31519;BME280;18129;45.082;13.644;2023-03-19T04:45:04;101539.76;;;8.99;49.94
31519;BME280;18129;45.082;13.644;2023-03-19T04:47:31;101553.01;;;7.63;50.41
31519;BME280;18129;45.082;13.644;2023-03-19T04:49:58;101551.97;;;7.96;50.77
31519;BME280;18129;45.082;13.644;2023-03-19T04:52:25;101553.56;;;8.50;49.80
31519;BME280;18129;45.082;13.644;2023-03-19T04:54:53;101558.64;;;7.79;51.50
31519;BME280;18129;45.082;13.644;2023-03-19T04:57:21;101556.89;;;8.54;50.48
31519;BME280;18129;45.082;13.644;2023-03-19T04:59:48;101556.22;;;8.36;51.48
31519;BME280;18129;45.082;13.644;2023-03-19T05:02:15;101561.44;;;7.85;51.50
31519;BME280;18129;45.082;13.644;2023-03-19T05:04:43;101563.12;;;6.89;53.87
31519;BME280;18129;45.082;13.644;2023-03-19T05:07:10;101566.97;;;5.50;57.38
31519;BME280;18129;45.082;13.644;2023-03-19T05:09:37;101574.77;;;4.56;64.06
31519;BME280;18129;45.082;13.644;2023-03-19T05:12:05;101576.04;;;4.01;70.14
31519;BME280;18129;45.082;13.644;2023-03-19T05:14:32;101575.86;;;3.91;71.29
31519;BME280;18129;45.082;13.644;2023-03-19T05:16:59;101576.10;;;4.33;70.51
31519;BME280;18129;45.082;13.644;2023-03-19T05:19:26;101572.50;;;4.49;68.29
31519;BME280;18129;45.082;13.644;2023-03-19T05:21:54;101558.96;;;5.27;65.53
31519;BME280;18129;45.082;13.644;2023-03-19T05:24:21;101557.31;;;5.17;65.83
31519;BME280;18129;45.082;13.644;2023-03-19T05:26:49;101565.46;;;4.44;69.46
31519;BME280;18129;45.082;13.644;2023-03-19T05:29:16;101567.39;;;3.78;70.94
31519;BME280;18129;45.082;13.644;2023-03-19T05:31:43;101567.02;;;4.01;73.19
31519;BME280;18129;45.082;13.644;2023-03-19T05:34:11;101571.22;;;3.41;76.16
31519;BME280;18129;45.082;13.644;2023-03-19T05:36:38;101576.29;;;3.22;77.22
31519;BME280;18129;45.082;13.644;2023-03-19T05:39:05;101579.13;;;3.71;78.09
31519;BME280;18129;45.082;13.644;2023-03-19T05:41:33;101585.29;;;3.41;77.13
31519;BME280;18129;45.082;13.644;2023-03-19T05:44:00;101586.89;;;3.51;75.67
31519;BME280;18129;45.082;13.644;2023-03-19T05:46:27;101594.33;;;3.83;74.87
31519;BME280;18129;45.082;13.644;2023-03-19T05:48:54;101598.18;;;4.03;73.47
31519;BME280;18129;45.082;13.644;2023-03-19T05:51:21;101599.66;;;3.89;74.08
31519;BME280;18129;45.082;13.644;2023-03-19T05:53:49;101601.49;;;4.23;74.01
31519;BME280;18129;45.082;13.644;2023-03-19T05:56:15;101599.06;;;4.25;75.18
31519;BME280;18129;45.082;13.644;2023-03-19T05:58:42;101597.55;;;4.34;76.34
31519;BME280;18129;45.082;13.644;2023-03-19T06:01:09;101601.59;;;4.30;77.31
31519;BME280;18129;45.082;13.644;2023-03-19T06:03:37;101600.22;;;4.38;79.01
31519;BME280;18129;45.082;13.644;2023-03-19T06:06:04;101602.15;;;4.28;80.85
31519;BME280;18129;45.082;13.644;2023-03-19T06:08:31;101602.27;;;4.28;80.47
31519;BME280;18129;45.082;13.644;2023-03-19T06:10:59;101611.52;;;4.48;80.10
31519;BME280;18129;45.082;13.644;2023-03-19T06:13:26;101614.52;;;4.86;80.30
31519;BME280;18129;45.082;13.644;2023-03-19T06:15:53;101618.13;;;4.77;80.03
31519;BME280;18129;45.082;13.644;2023-03-19T06:18:20;101619.32;;;4.50;80.77
31519;BME280;18129;45.082;13.644;2023-03-19T06:20:47;101624.18;;;4.87;81.51
31519;BME280;18129;45.082;13.644;2023-03-19T06:23:15;101622.50;;;5.28;80.25
31519;BME280;18129;45.082;13.644;2023-03-19T06:25:41;101628.80;;;5.02;80.54
31519;BME280;18129;45.082;13.644;2023-03-19T06:28:09;101633.06;;;5.20;81.13
31519;BME280;18129;45.082;13.644;2023-03-19T06:30:36;101637.56;;;5.25;81.88
31519;BME280;18129;45.082;13.644;2023-03-19T06:33:04;101638.55;;;5.65;82.53
31519;BME280;18129;45.082;13.644;2023-03-19T06:35:30;101636.30;;;5.63;81.00
31519;BME280;18129;45.082;13.644;2023-03-19T06:37:57;101637.86;;;5.59;81.98
31519;BME280;18129;45.082;13.644;2023-03-19T06:40:24;101638.18;;;5.61;83.19
31519;BME280;18129;45.082;13.644;2023-03-19T06:42:51;101634.75;;;5.97;81.71
31519;BME280;18129;45.082;13.644;2023-03-19T06:45:18;101631.43;;;6.47;80.90
31519;BME280;18129;45.082;13.644;2023-03-19T06:47:45;101637.57;;;6.46;80.22
31519;BME280;18129;45.082;13.644;2023-03-19T06:50:14;101635.86;;;6.59;78.17
31519;BME280;18129;45.082;13.644;2023-03-19T06:52:41;101629.69;;;7.85;74.93
31519;BME280;18129;45.082;13.644;2023-03-19T06:55:09;101633.49;;;7.56;75.71
31519;BME280;18129;45.082;13.644;2023-03-19T06:57:36;101633.16;;;7.69;73.52
31519;BME280;18129;45.082;13.644;2023-03-19T07:00:03;101634.23;;;7.64;75.01
31519;BME280;18129;45.082;13.644;2023-03-19T07:02:31;101634.73;;;7.52;75.19
31519;BME280;18129;45.082;13.644;2023-03-19T07:04:57;101633.70;;;7.20;80.14
31519;BME280;18129;45.082;13.644;2023-03-19T07:07:25;101637.72;;;7.30;81.99
31519;BME280;18129;45.082;13.644;2023-03-19T07:09:51;101641.93;;;7.98;82.57
31519;BME280;18129;45.082;13.644;2023-03-19T07:12:19;101645.50;;;7.62;85.38
31519;BME280;18129;45.082;13.644;2023-03-19T07:14:46;101642.48;;;7.68;87.15
31519;BME280;18129;45.082;13.644;2023-03-19T07:17:13;101640.41;;;8.01;87.69
31519;BME280;18129;45.082;13.644;2023-03-19T07:19:40;101640.06;;;8.15;90.56
31519;BME280;18129;45.082;13.644;2023-03-19T07:22:07;101637.16;;;7.66;97.34
31519;BME280;18129;45.082;13.644;2023-03-19T07:24:35;101636.18;;;7.89;99.75
31519;BME280;18129;45.082;13.644;2023-03-19T07:27:01;101640.74;;;8.12;100.00
31519;BME280;18129;45.082;13.644;2023-03-19T07:29:28;101644.86;;;8.12;100.00
31519;BME280;18129;45.082;13.644;2023-03-19T07:31:56;101644.43;;;7.99;100.00
31519;BME280;18129;45.082;13.644;2023-03-19T07:34:24;101641.20;;;8.35;100.00
31519;BME280;18129;45.082;13.644;2023-03-19T07:36:51;101644.61;;;8.19;100.00
31519;BME280;18129;45.082;13.644;2023-03-19T07:39:19;101646.86;;;8.43;100.00
31519;BME280;18129;45.082;13.644;2023-03-19T07:41:46;101644.69;;;8.24;100.00
31519;BME280;18129;45.082;13.644;2023-03-19T07:44:14;101639.46;;;8.11;100.00
31519;BME280;18129;45.082;13.644;2023-03-19T07:46:41;101643.67;;;8.29;100.00
31519;BME280;18129;45.082;13.644;2023-03-19T07:49:09;101645.06;;;8.24;100.00
31519;BME280;18129;45.082;13.644;2023-03-19T07:51:36;101647.54;;;8.28;100.00
31519;BME280;18129;45.082;13.644;2023-03-19T07:54:04;101646.13;;;8.65;100.00
31519;BME280;18129;45.082;13.644;2023-03-19T07:56:31;101653.32;;;8.45;100.00
31519;BME280;18129;45.082;13.644;2023-03-19T07:58:59;101646.77;;;8.33;100.00
31519;BME280;18129;45.082;13.644;2023-03-19T08:01:25;101640.39;;;8.75;100.00
31519;BME280;18129;45.082;13.644;2023-03-19T08:03:53;101646.23;;;9.08;100.00
31519;BME280;18129;45.082;13.644;2023-03-19T08:06:21;101654.75;;;9.18;100.00
31519;BME280;18129;45.082;13.644;2023-03-19T08:08:48;101644.98;;;10.12;100.00
31519;BME280;18129;45.082;13.644;2023-03-19T08:11:16;101647.34;;;10.73;100.00
31519;BME280;18129;45.082;13.644;2023-03-19T08:13:43;101649.76;;;11.04;100.00
31519;BME280;18129;45.082;13.644;2023-03-19T08:16:11;101651.74;;;10.89;100.00
31519;BME280;18129;45.082;13.644;2023-03-19T08:18:38;101645.02;;;11.38;100.00
31519;BME280;18129;45.082;13.644;2023-03-19T08:21:06;101640.46;;;12.45;100.00
31519;BME280;18129;45.082;13.644;2023-03-19T08:23:33;101650.45;;;11.89;99.64
31519;BME280;18129;45.082;13.644;2023-03-19T08:26:01;101651.31;;;12.95;95.00
31519;BME280;18129;45.082;13.644;2023-03-19T08:28:28;101648.33;;;12.34;100.00
31519;BME280;18129;45.082;13.644;2023-03-19T08:30:56;101652.28;;;13.01;100.00
31519;BME280;18129;45.082;13.644;2023-03-19T08:33:23;101656.89;;;13.76;93.48
31519;BME280;18129;45.082;13.644;2023-03-19T08:35:51;101668.40;;;12.22;99.94
31519;BME280;18129;45.082;13.644;2023-03-19T08:38:18;101674.13;;;13.46;93.23
31519;BME280;18129;45.082;13.644;2023-03-19T08:40:46;101669.91;;;12.70;98.39
31519;BME280;18129;45.082;13.644;2023-03-19T08:43:13;101665.46;;;13.62;93.05
31519;BME280;18129;45.082;13.644;2023-03-19T08:45:40;101660.41;;;12.54;100.00
31519;BME280;18129;45.082;13.644;2023-03-19T08:48:08;101668.15;;;13.85;96.35
31519;BME280;18129;45.082;13.644;2023-03-19T08:50:35;101673.50;;;14.07;90.01
31519;BME280;18129;45.082;13.644;2023-03-19T08:53:03;101663.28;;;13.94;94.07
31519;BME280;18129;45.082;13.644;2023-03-19T08:55:31;101668.19;;;13.52;91.86
31519;BME280;18129;45.082;13.644;2023-03-19T08:57:58;101656.60;;;14.83;90.70
31519;BME280;18129;45.082;13.644;2023-03-19T09:00:25;101655.96;;;17.43;74.26
31519;BME280;18129;45.082;13.644;2023-03-19T09:02:53;101655.55;;;17.73;68.13
31519;BME280;18129;45.082;13.644;2023-03-19T09:05:20;101666.81;;;15.56;76.16
31519;BME280;18129;45.082;13.644;2023-03-19T09:07:49;101649.46;;;17.57;71.80
31519;BME280;18129;45.082;13.644;2023-03-19T09:10:17;101670.52;;;15.36;77.60
31519;BME280;18129;45.082;13.644;2023-03-19T09:12:44;101660.38;;;17.29;71.86
31519;BME280;18129;45.082;13.644;2023-03-19T09:15:11;101672.76;;;17.00;71.12
31519;BME280;18129;45.082;13.644;2023-03-19T09:17:39;101666.46;;;19.54;59.49
31519;BME280;18129;45.082;13.644;2023-03-19T09:20:08;101676.71;;;19.71;58.72
31519;BME280;18129;45.082;13.644;2023-03-19T09:22:36;101673.80;;;21.17;52.23
31519;BME280;18129;45.082;13.644;2023-03-19T09:25:03;101680.05;;;21.26;50.80
31519;BME280;18129;45.082;13.644;2023-03-19T09:27:31;101684.96;;;19.55;52.95
31519;BME280;18129;45.082;13.644;2023-03-19T09:29:58;101685.60;;;17.30;62.72
31519;BME280;18129;45.082;13.644;2023-03-19T09:32:26;101703.17;;;18.68;61.28
31519;BME280;18129;45.082;13.644;2023-03-19T09:34:53;101669.92;;;22.62;52.57
31519;BME280;18129;45.082;13.644;2023-03-19T09:37:20;101662.01;;;23.11;48.46
31519;BME280;18129;45.082;13.644;2023-03-19T09:39:48;101672.53;;;20.54;50.06
31519;BME280;18129;45.082;13.644;2023-03-19T09:42:26;101671.76;;;20.07;52.71
31519;BME280;18129;45.082;13.644;2023-03-19T09:44:57;101677.30;;;18.00;57.57
31519;BME280;18129;45.082;13.644;2023-03-19T09:47:26;101662.02;;;24.29;46.40
31519;BME280;18129;45.082;13.644;2023-03-19T09:49:56;101686.56;;;19.41;51.18
31519;BME280;18129;45.082;13.644;2023-03-19T09:52:35;101691.00;;;22.12;47.37
31519;BME280;18129;45.082;13.644;2023-03-19T09:55:12;101691.51;;;22.16;46.83
31519;BME280;18129;45.082;13.644;2023-03-19T09:57:40;101694.12;;;19.54;52.48
31519;BME280;18129;45.082;13.644;2023-03-19T10:00:19;101698.32;;;19.74;52.77
31519;BME280;18129;45.082;13.644;2023-03-19T10:02:51;101699.58;;;20.40;52.75
31519;BME280;18129;45.082;13.644;2023-03-19T10:05:25;101688.41;;;22.18;49.73
31519;BME280;18129;45.082;13.644;2023-03-19T10:08:09;101714.65;;;20.38;50.64
31519;BME280;18129;45.082;13.644;2023-03-19T10:10:48;101689.88;;;21.04;50.73
31519;BME280;18129;45.082;13.644;2023-03-19T10:13:24;101686.60;;;19.33;53.79
31519;BME280;18129;45.082;13.644;2023-03-19T10:15:55;101683.08;;;21.00;51.45
31519;BME280;18129;45.082;13.644;2023-03-19T10:18:26;101705.82;;;19.10;54.70
31519;BME280;18129;45.082;13.644;2023-03-19T10:20:57;101681.83;;;21.35;52.74
31519;BME280;18129;45.082;13.644;2023-03-19T10:23:33;101692.61;;;20.43;51.98
31519;BME280;18129;45.082;13.644;2023-03-19T10:26:07;101695.01;;;17.77;58.39
31519;BME280;18129;45.082;13.644;2023-03-19T10:28:36;101686.64;;;19.37;55.83
31519;BME280;18129;45.082;13.644;2023-03-19T10:31:17;101695.99;;;19.44;54.31
31519;BME280;18129;45.082;13.644;2023-03-19T10:33:52;101696.72;;;21.66;49.46
31519;BME280;18129;45.082;13.644;2023-03-19T10:36:25;101679.62;;;19.77;51.95
31519;BME280;18129;45.082;13.644;2023-03-19T10:38:53;101679.71;;;19.99;55.51
31519;BME280;18129;45.082;13.644;2023-03-19T10:41:29;101689.44;;;16.14;70.54
31519;BME280;18129;45.082;13.644;2023-03-19T10:44:02;101691.03;;;13.09;91.25
31519;BME280;18129;45.082;13.644;2023-03-19T10:46:37;101691.53;;;13.94;91.83
31519;BME280;18129;45.082;13.644;2023-03-19T10:49:04;101703.15;;;16.50;84.87
31519;BME280;18129;45.082;13.644;2023-03-19T10:51:31;101685.77;;;15.43;94.78
31519;BME280;18129;45.082;13.644;2023-03-19T10:54:00;101677.78;;;16.41;87.81
31519;BME280;18129;45.082;13.644;2023-03-19T10:56:28;101676.92;;;19.31;74.29
31519;BME280;18129;45.082;13.644;2023-03-19T10:59:01;101677.16;;;17.34;75.32
31519;BME280;18129;45.082;13.644;2023-03-19T11:01:32;101667.04;;;22.19;60.42
31519;BME280;18129;45.082;13.644;2023-03-19T11:04:01;101665.19;;;23.75;52.13
31519;BME280;18129;45.082;13.644;2023-03-19T11:06:38;101674.92;;;18.98;60.79
31519;BME280;18129;45.082;13.644;2023-03-19T11:09:16;101668.78;;;18.71;65.21
31519;BME280;18129;45.082;13.644;2023-03-19T11:11:45;101678.34;;;15.83;76.59
31519;BME280;18129;45.082;13.644;2023-03-19T11:14:15;101685.27;;;14.84;89.71
31519;BME280;18129;45.082;13.644;2023-03-19T11:16:48;101672.88;;;16.26;85.00
31519;BME280;18129;45.082;13.644;2023-03-19T11:19:19;101669.37;;;17.43;76.45
31519;BME280;18129;45.082;13.644;2023-03-19T11:22:03;101673.09;;;17.74;74.56
31519;BME280;18129;45.082;13.644;2023-03-19T11:24:36;101662.69;;;19.29;69.86
31519;BME280;18129;45.082;13.644;2023-03-19T11:27:04;101672.07;;;17.88;73.18
31519;BME280;18129;45.082;13.644;2023-03-19T11:29:33;101668.68;;;16.87;80.25
31519;BME280;18129;45.082;13.644;2023-03-19T11:32:13;101688.77;;;14.55;96.50
31519;BME280;18129;45.082;13.644;2023-03-19T11:34:46;101690.73;;;14.26;100.00
31519;BME280;18129;45.082;13.644;2023-03-19T11:37:22;101678.97;;;16.52;87.21
31519;BME280;18129;45.082;13.644;2023-03-19T11:40:01;101678.44;;;15.91;87.51
31519;BME280;18129;45.082;13.644;2023-03-19T11:42:51;101688.24;;;16.35;83.42
31519;BME280;18129;45.082;13.644;2023-03-19T11:45:29;101677.86;;;15.50;92.60
31519;BME280;18129;45.082;13.644;2023-03-19T11:48:12;101663.60;;;16.75;86.78
31519;BME280;18129;45.082;13.644;2023-03-19T11:50:49;101662.23;;;19.67;71.52
31519;BME280;18129;45.082;13.644;2023-03-19T11:53:25;101652.53;;;22.24;61.95
31519;BME280;18129;45.082;13.644;2023-03-19T11:56:01;101649.91;;;23.99;52.58
31519;BME280;18129;45.082;13.644;2023-03-19T11:58:48;101641.17;;;25.05;47.39
31519;BME280;18129;45.082;13.644;2023-03-19T12:01:34;101632.06;;;25.09;46.26
31519;BME280;18129;45.082;13.644;2023-03-19T12:04:33;101632.79;;;26.15;44.49
31519;BME280;18129;45.082;13.644;2023-03-19T12:07:09;101645.81;;;21.51;51.36
31519;BME280;18129;45.082;13.644;2023-03-19T12:09:46;101647.19;;;20.04;56.00
31519;BME280;18129;45.082;13.644;2023-03-19T12:12:21;101636.75;;;18.12;64.79
31519;BME280;18129;45.082;13.644;2023-03-19T12:15:00;101642.07;;;16.49;73.35
31519;BME280;18129;45.082;13.644;2023-03-19T12:17:43;101637.85;;;16.77;75.83
31519;BME280;18129;45.082;13.644;2023-03-19T12:20:21;101635.62;;;17.37;73.85
31519;BME280;18129;45.082;13.644;2023-03-19T12:22:59;101636.37;;;16.91;73.96
31519;BME280;18129;45.082;13.644;2023-03-19T12:26:05;101638.14;;;16.09;81.65
31519;BME280;18129;45.082;13.644;2023-03-19T12:28:35;101627.43;;;17.01;75.25
31519;BME280;18129;45.082;13.644;2023-03-19T12:31:29;101625.16;;;15.86;83.24
31519;BME280;18129;45.082;13.644;2023-03-19T12:34:09;101633.36;;;13.99;100.00
31519;BME280;18129;45.082;13.644;2023-03-19T12:36:42;101631.32;;;14.33;100.00
31519;BME280;18129;45.082;13.644;2023-03-19T12:39:16;101622.62;;;16.14;88.15
31519;BME280;18129;45.082;13.644;2023-03-19T12:41:45;101619.37;;;15.99;86.28
31519;BME280;18129;45.082;13.644;2023-03-19T12:44:18;101618.00;;;17.48;80.48
31519;BME280;18129;45.082;13.644;2023-03-19T12:46:52;101614.63;;;17.77;76.99
31519;BME280;18129;45.082;13.644;2023-03-19T12:49:25;101606.84;;;19.00;74.62
31519;BME280;18129;45.082;13.644;2023-03-19T12:51:59;101602.51;;;20.40;66.19
31519;BME280;18129;45.082;13.644;2023-03-19T12:54:30;101607.16;;;18.70;66.80
31519;BME280;18129;45.082;13.644;2023-03-19T12:57:03;101616.51;;;17.68;70.12